Time;durP1;ratioP1;P1;durP2;ratioP2;P2;SDS_P1;SDS_P2;PMS_P1;PMS_P2;Temp;Humidity;BMP_temperature;BMP_pressure;BME280_temperature;BME280_humidity;BME280_pressure;Samples;Min_cycle;Max_cycle;Signal;HPM_P1;HPM_P2
2021/12/04 00:00:11;;;;;;;59.33;29.95;;;5.20;99.90;;;;;;5031410;28;20499;-70
2021/12/04 00:02:37;;;;;;;55.40;29.55;;;5.20;99.90;;;;;;5048064;28;20167;-70
2021/12/04 00:05:05;;;;;;;62.15;31.70;;;;;;;;;;5014957;28;20095;-70
2021/12/04 00:07:33;;;;;;;61.20;29.55;;;;;;;;;;5047989;28;20134;-70
2021/12/04 00:10:02;;;;;;;61.20;30.77;;;;;;;;;;5048172;28;20085;-70
2021/12/04 00:12:30;;;;;;;61.03;28.98;;;5.20;99.90;;;;;;5048239;28;20068;-70
2021/12/04 00:14:56;;;;;;;68.30;29.45;;;;;;;;;;5031209;28;20045;-70
2021/12/04 00:17:22;;;;;;;63.80;29.17;;;5.20;99.90;;;;;;5030674;28;20553;-70
2021/12/04 00:19:47;;;;;;;65.80;30.52;;;5.20;99.90;;;;;;5032755;28;20045;-70
2021/12/04 00:22:13;;;;;;;60.28;29.88;;;;;;;;;;5014955;28;20069;-70
2021/12/04 00:24:39;;;;;;;67.50;30.80;;;5.30;99.90;;;;;;5030776;28;20037;-70
2021/12/04 00:27:05;;;;;;;63.78;29.40;;;5.20;99.90;;;;;;5030815;28;20034;-70
2021/12/04 00:29:31;;;;;;;57.85;28.95;;;5.20;99.90;;;;;;5031132;28;20085;-70
2021/12/04 00:32:00;;;;;;;68.45;31.77;;;5.10;99.90;;;;;;5031119;28;20402;-70
2021/12/04 00:34:28;;;;;;;83.22;32.00;;;;;;;;;;5047451;28;20045;-70
2021/12/04 00:50:28;;;;;;;68.68;28.17;;;;;;;;;;5047231;28;20049;-70
2021/12/04 00:52:55;;;;;;;72.05;31.33;;;5.10;99.90;;;;;;5030850;28;20068;-70
2021/12/04 00:55:21;;;;;;;65.63;28.85;;;;;;;;;;5030230;28;20124;-70
2021/12/04 00:57:47;;;;;;;97.82;33.95;;;5.10;99.90;;;;;;5030471;28;20057;-70
2021/12/04 01:00:13;;;;;;;68.18;28.67;;;5.10;99.90;;;;;;5030407;28;20045;-70
2021/12/04 01:02:38;;;;;;;77.97;27.08;;;5.10;99.90;;;;;;5047052;28;20514;-70
2021/12/04 01:05:04;;;;;;;82.40;30.25;;;5.20;99.90;;;;;;5030352;28;20041;-70
2021/12/04 01:07:30;;;;;;;78.35;31.15;;;;;;;;;;5029927;28;20045;-70
2021/12/04 01:09:56;;;;;;;70.55;28.08;;;;;;;;;;5030213;28;20140;-70
2021/12/04 01:12:22;;;;;;;82.38;29.52;;;;;;;;;;5030595;28;20077;-70
2021/12/04 01:14:48;;;;;;;63.47;27.13;;;5.20;99.90;;;;;;5030289;28;20050;-70
2021/12/04 01:17:13;;;;;;;70.07;28.38;;;5.20;99.90;;;;;;5029876;28;20071;-70
2021/12/04 01:19:39;;;;;;;58.83;27.10;;;5.20;99.90;;;;;;5030251;28;20053;-70
2021/12/04 01:22:05;;;;;;;69.65;26.83;;;;;;;;;;5030290;28;20042;-70
2021/12/04 01:24:31;;;;;;;64.38;25.23;;;5.00;99.90;;;;;;5029731;28;20560;-70
2021/12/04 01:26:57;;;;;;;66.22;26.27;;;;;;;;;;5029857;28;20033;-70
2021/12/04 01:29:23;;;;;;;77.90;26.60;;;;;;;;;;5030476;28;20136;-70
2021/12/04 01:31:49;;;;;;;94.82;30.35;;;;;;;;;;5030097;28;20515;-70
2021/12/04 01:34:15;;;;;;;60.75;26.63;;;;;;;;;;5030382;28;20494;-70
2021/12/04 01:36:42;;;;;;;77.78;27.00;;;;;;;;;;5029842;28;20423;-70
2021/12/04 01:39:08;;;;;;;86.22;28.25;;;;;;;;;;5030185;28;20041;-70
2021/12/04 01:41:34;;;;;;;68.40;25.13;;;5.00;99.90;;;;;;5030044;28;20041;-70
2021/12/04 01:44:03;;;;;;;68.95;27.20;;;5.20;99.90;;;;;;5046618;28;20034;-69
2021/12/04 01:46:29;;;;;;;87.18;31.08;;;5.30;99.90;;;;;;5029600;28;20037;-70
2021/12/04 01:48:55;;;;;;;101.65;34.45;;;;;;;;;;5030090;28;20091;-70
2021/12/04 01:51:21;;;;;;;67.15;26.45;;;5.10;99.90;;;;;;5046633;28;20037;-70
2021/12/04 01:53:47;;;;;;;71.22;28.13;;;5.00;99.90;;;;;;5031307;28;20041;-70
2021/12/04 01:56:13;;;;;;;63.60;26.63;;;;;;;;;;5029594;28;20044;-70
2021/12/04 01:58:41;;;;;;;81.53;28.05;;;5.30;99.90;;;;;;5029903;28;20037;-70
2021/12/04 02:01:08;;;;;;;73.72;26.67;;;5.10;99.90;;;;;;5030080;28;20410;-70
2021/12/04 02:03:34;;;;;;;66.28;27.42;;;5.10;99.90;;;;;;5046500;28;20033;-70
2021/12/04 02:06:00;;;;;;;72.50;27.77;;;5.20;99.90;;;;;;5029484;28;20042;-70
2021/12/04 02:08:25;;;;;;;82.75;27.23;;;5.20;99.90;;;;;;5031295;28;20049;-70
2021/12/04 02:10:57;;;;;;;73.25;26.90;;;5.20;99.90;;;;;;5029883;28;20038;-70
2021/12/04 02:13:23;;;;;;;76.32;27.35;;;;;;;;;;5030109;28;20060;-70
2021/12/04 02:15:49;;;;;;;70.57;26.55;;;5.20;99.90;;;;;;5029325;28;20045;-69
2021/12/04 02:18:18;;;;;;;71.45;28.73;;;5.10;99.90;;;;;;5030422;28;20052;-70
2021/12/04 02:20:44;;;;;;;77.95;27.98;;;5.10;99.90;;;;;;5033433;28;20117;-70
2021/12/04 02:23:10;;;;;;;89.82;28.63;;;5.20;99.90;;;;;;5033335;28;20038;-70
2021/12/04 02:25:36;;;;;;;64.55;25.70;;;5.00;99.90;;;;;;5015932;28;20080;-69
2021/12/04 02:28:03;;;;;;;65.45;25.13;;;5.10;99.90;;;;;;5016699;28;20116;-70
2021/12/04 02:30:34;;;;;;;56.10;24.65;;;5.30;99.90;;;;;;5033355;28;20418;-70
2021/12/04 02:33:00;;;;;;;70.30;26.27;;;5.10;99.90;;;;;;5033410;28;20033;-70
2021/12/04 02:35:26;;;;;;;58.72;25.35;;;5.00;99.90;;;;;;5016588;28;20510;-69
2021/12/04 02:37:53;;;;;;;66.45;27.02;;;5.10;99.90;;;;;;5033053;28;20041;-70
2021/12/04 02:40:22;;;;;;;72.15;26.50;;;5.20;99.90;;;;;;5034311;28;20128;-70
2021/12/04 02:42:49;;;;;;;59.38;24.73;;;5.20;99.90;;;;;;5033085;28;20104;-70
2021/12/04 02:45:16;;;;;;;63.53;24.90;;;;;;;;;;5034230;28;20044;-70
2021/12/04 02:47:42;;;;;;;78.35;27.15;;;;;;;;;;5032904;28;20143;-70
2021/12/04 02:50:11;;;;;;;60.03;24.77;;;5.10;99.90;;;;;;5033093;28;20080;-70
2021/12/04 02:52:37;;;;;;;65.88;26.52;;;5.10;99.90;;;;;;5032771;28;20494;-70
2021/12/04 02:55:04;;;;;;;56.42;22.85;;;5.20;99.90;;;;;;5016217;28;20073;-70
2021/12/04 02:57:32;;;;;;;52.13;23.27;;;5.10;99.90;;;;;;5032465;28;20045;-70
2021/12/04 02:59:57;;;;;;;56.80;24.25;;;5.10;99.90;;;;;;5032565;28;20045;-70
2021/12/04 03:02:23;;;;;;;49.78;22.38;;;5.20;99.90;;;;;;5032757;28;20407;-70
2021/12/04 03:04:58;;;;;;;53.63;23.25;;;5.10;99.90;;;;;;5032792;28;20067;-70
2021/12/04 03:07:24;;;;;;;52.45;22.48;;;5.30;99.90;;;;;;5032369;28;20045;-70
2021/12/04 03:09:50;;;;;;;42.88;21.17;;;5.00;99.90;;;;;;5032427;28;20045;-70
2021/12/04 03:12:19;;;;;;;49.90;23.27;;;5.10;99.90;;;;;;5032351;28;20450;-70
2021/12/04 03:14:45;;;;;;;50.47;23.27;;;;;;;;;;5032328;28;20049;-70
2021/12/04 03:17:11;;;;;;;48.60;20.85;;;5.00;99.90;;;;;;5032118;28;20037;-70
2021/12/04 03:19:39;;;;;;;51.10;21.33;;;;;;;;;;5032249;28;20037;-69
2021/12/04 03:22:06;;;;;;;47.60;21.17;;;5.20;99.90;;;;;;5032572;28;20411;-70
2021/12/04 03:24:33;;;;;;;55.08;20.67;;;5.00;99.90;;;;;;5031799;28;20051;-70
2021/12/04 03:26:59;;;;;;;47.65;20.27;;;5.10;99.90;;;;;;5031777;28;20045;-70
2021/12/04 03:29:27;;;;;;;44.33;20.02;;;5.10;99.90;;;;;;5031961;28;20056;-70
2021/12/04 03:40:07;;;;;;;41.80;18.75;;;5.20;99.90;;;;;;5031810;28;20052;-70
2021/12/04 03:42:38;;;;;;;51.00;19.60;;;5.20;99.90;;;;;;5031886;28;20052;-69
2021/12/04 03:45:08;;;;;;;50.35;20.27;;;5.20;99.90;;;;;;5015181;28;20087;-70
2021/12/04 03:47:34;;;;;;;53.70;22.30;;;5.10;99.90;;;;;;5031764;28;20045;-70
2021/12/04 03:50:00;;;;;;;54.72;21.10;;;5.10;99.90;;;;;;5031813;28;20120;-69
2021/12/04 03:52:26;;;;;;;43.30;19.35;;;;;;;;;;5015174;28;20076;-69
2021/12/04 03:54:51;;;;;;;53.53;20.52;;;5.00;99.90;;;;;;5031771;28;20049;-69
2021/12/04 03:57:17;;;;;;;52.90;20.52;;;;;;;;;;5031021;28;20129;-68
2021/12/04 03:59:47;;;;;;;43.88;20.10;;;5.00;99.90;;;;;;5031648;28;20099;-68
2021/12/04 04:02:15;;;;;;;46.72;18.83;;;5.30;99.90;;;;;;5031535;28;20491;-69
2021/12/04 04:04:41;;;;;;;56.08;19.13;;;;;;;;;;5031590;28;20415;-70
2021/12/04 04:07:08;;;;;;;43.10;17.85;;;;;;;;;;5031154;28;20050;-69
2021/12/04 04:09:34;;;;;;;45.63;18.25;;;5.20;99.90;;;;;;5031344;28;20049;-69
2021/12/04 04:12:00;;;;;;;45.80;19.80;;;4.90;99.90;;;;;;5032062;28;20073;-69
2021/12/04 04:14:26;;;;;;;54.70;20.30;;;;;;;;;;5015160;28;20080;-69
2021/12/04 04:16:55;;;;;;;43.35;19.52;;;5.00;99.90;;;;;;5030953;28;20045;-69
2021/12/04 04:19:22;;;;;;;50.50;19.08;;;4.90;99.90;;;;;;5031554;28;20034;-69
2021/12/04 04:21:48;;;;;;;46.97;18.05;;;5.20;99.90;;;;;;5031325;28;20041;-69
2021/12/04 04:24:17;;;;;;;41.60;18.70;;;5.10;99.90;;;;;;5030870;28;20042;-69
2021/12/04 04:26:44;;;;;;;64.35;20.50;;;5.10;99.90;;;;;;5030742;28;20049;-69
2021/12/04 04:29:10;;;;;;;47.40;19.23;;;4.90;99.90;;;;;;5031207;28;20511;-69
2021/12/04 04:31:44;;;;;;;44.67;18.88;;;5.30;99.90;;;;;;5030942;28;20120;-69
2021/12/04 04:34:10;;;;;;;45.05;18.60;;;;;;;;;;5030999;28;20053;-69
2021/12/04 05:15:12;;;;;;;53.72;20.38;;;5.20;99.90;;;;;;5030369;28;20127;-69
2021/12/04 05:20:20;;;;;;;60.00;21.50;;;;;;;;;;4994066;28;20074;-68
2021/12/04 05:22:46;;;;;;;44.65;17.90;;;;;;;;;;4994019;28;20392;-69
2021/12/04 05:25:12;;;;;;;53.20;21.58;;;;;;;;;;4993794;28;20040;-69
2021/12/04 05:27:38;;;;;;;51.95;20.85;;;;;;;;;;4993475;28;20042;-68
2021/12/04 05:30:06;;;;;;;43.45;17.98;;;5.00;99.90;;;;;;4994177;28;20438;-68
2021/12/04 05:32:32;;;;;;;52.28;19.88;;;5.00;99.90;;;;;;4977693;28;20487;-69
2021/12/04 05:34:58;;;;;;;55.58;19.88;;;;;;;;;;4994027;28;20042;-68
2021/12/04 05:37:24;;;;;;;44.30;19.20;;;;;;;;;;4993542;28;20559;-69
2021/12/04 05:39:49;;;;;;;45.25;18.83;;;5.10;99.90;;;;;;4993750;28;20423;-68
2021/12/04 05:42:15;;;;;;;44.13;18.00;;;;;;;;;;4993762;28;20119;-69
2021/12/04 05:44:43;;;;;;;46.22;17.95;;;;;;;;;;4994031;28;20399;-69
2021/12/04 05:47:36;;;;;;;48.47;20.60;;;;;;;;;;4993433;28;20038;-69
2021/12/04 05:50:11;;;;;;;54.17;20.83;;;;;;;;;;4993634;28;20099;-68
2021/12/04 05:52:51;;;;;;;45.45;18.80;;;;;;;;;;4993930;28;20092;-69
2021/12/04 05:55:22;;;;;;;70.63;21.42;;;;;;;;;;4981009;28;20048;-68
2021/12/04 05:57:48;;;;;;;57.88;19.52;;;;;;;;;;4997542;28;20415;-68
2021/12/04 06:00:19;;;;;;;43.50;18.67;;;5.30;99.90;;;;;;4997315;28;20041;-69
2021/12/04 06:02:46;;;;;;;41.20;17.60;;;;;;;;;;4997441;28;20129;-68
2021/12/04 06:05:12;;;;;;;52.53;19.55;;;;;;;;;;4997467;28;20037;-69
2021/12/04 06:07:38;;;;;;;50.53;18.42;;;;;;;;;;4980899;28;20041;-69
2021/12/04 06:10:04;;;;;;;70.50;23.30;;;;;;;;;;4997454;28;20045;-69
2021/12/04 06:12:31;;;;;;;48.85;19.05;;;;;;;;;;4980803;28;20053;-69
2021/12/04 06:14:57;;;;;;;45.75;18.63;;;;;;;;;;4997429;28;20045;-68
2021/12/04 06:17:24;;;;;;;45.28;19.20;;;;;;;;;;4980924;28;20129;-69
2021/12/04 06:22:38;;;;;;;51.30;19.25;;;5.10;99.90;;;;;;4997103;28;20049;-69
2021/12/04 06:25:25;;;;;;;43.33;16.85;;;5.30;99.90;;;;;;4980698;28;20045;-69
2021/12/04 06:27:51;;;;;;;62.42;18.25;;;5.00;99.90;;;;;;4997118;28;20128;-69
2021/12/04 06:30:19;;;;;;;51.92;17.80;;;5.10;99.90;;;;;;4997138;28;20145;-69
2021/12/04 06:32:48;;;;;;;39.03;17.70;;;;;;;;;;4996880;28;20304;-68
2021/12/04 06:35:14;;;;;;;43.92;18.05;;;;;;;;;;4996863;28;20050;-69
2021/12/04 06:37:40;;;;;;;38.05;17.02;;;5.00;99.90;;;;;;4979921;28;20046;-69
2021/12/04 06:40:08;;;;;;;41.60;16.10;;;5.20;99.90;;;;;;4996501;28;20072;-68
2021/12/04 06:42:34;;;;;;;59.33;18.20;;;;;;;;;;4996917;28;20121;-69
2021/12/04 06:45:00;;;;;;;51.17;18.73;;;;;;;;;;4980755;28;20138;-68
2021/12/04 06:47:26;;;;;;;43.58;17.23;;;;;;;;;;4980019;28;20045;-69
2021/12/04 06:49:57;;;;;;;52.75;18.70;;;;;;;;;;4980226;28;20573;-68
2021/12/04 06:52:26;;;;;;;49.63;17.17;;;5.20;99.90;;;;;;4996492;28;20129;-69
2021/12/04 06:55:02;;;;;;;41.88;17.52;;;;;;;;;;4980409;28;20042;-69
2021/12/04 06:57:29;;;;;;;42.47;17.70;;;;;;;;;;4980065;28;20384;-68
2021/12/04 06:59:56;;;;;;;61.75;20.00;;;;;;;;;;4996107;28;20500;-68
2021/12/04 07:02:22;;;;;;;51.65;16.98;;;;;;;;;;4996219;28;20037;-69
2021/12/04 07:04:48;;;;;;;42.00;17.05;;;;;;;;;;4996016;28;20394;-68
2021/12/04 07:07:15;;;;;;;61.45;18.50;;;;;;;;;;4979679;28;20038;-69
2021/12/04 07:09:41;;;;;;;58.25;17.50;;;;;;;;;;4999352;28;20044;-68
2021/12/04 07:12:08;;;;;;;58.67;20.30;;;;;;;;;;4997157;28;20112;-69
2021/12/04 07:14:34;;;;;;;101.32;26.17;;;5.10;99.90;;;;;;4994251;28;20075;-69
2021/12/04 07:17:02;;;;;;;43.22;16.35;;;;;;;;;;4970669;28;20491;-68
2021/12/04 07:19:29;;;;;;;54.78;20.13;;;5.00;99.90;;;;;;4995289;28;20073;-70
2021/12/04 07:21:55;;;;;;;56.53;19.52;;;;;;;;;;4979165;28;20037;-69
2021/12/04 07:24:22;;;;;;;68.57;18.08;;;5.10;99.90;;;;;;4995281;28;20091;-69
2021/12/04 07:26:47;;;;;;;74.93;21.95;;;5.20;99.90;;;;;;4994677;28;20050;-68
2021/12/04 07:29:13;;;;;;;76.13;20.33;;;;;;;;;;4995193;28;20050;-68
2021/12/04 07:31:39;;;;;;;53.28;16.85;;;5.10;99.90;;;;;;4995077;28;20038;-69
2021/12/04 07:34:06;;;;;;;60.15;17.98;;;5.10;99.90;;;;;;4995033;28;20125;-65
2021/12/04 07:36:32;;;;;;;67.10;18.38;;;5.20;99.90;;;;;;4994463;28;20073;-69
2021/12/04 07:38:59;;;;;;;49.78;16.88;;;5.20;99.90;;;;;;5012585;28;20029;-69
2021/12/04 07:41:25;;;;;;;69.82;19.95;;;;;;;;;;4995135;28;20076;-69
2021/12/04 07:43:52;;;;;;;63.67;19.52;;;5.20;99.90;;;;;;4994741;28;20037;-69
2021/12/04 07:46:18;;;;;;;52.83;18.15;;;;;;;;;;4994557;28;20068;-68
2021/12/04 07:48:44;;;;;;;108.45;27.30;;;;;;;;;;5001658;28;20037;-69
2021/12/04 07:51:11;;;;;;;61.92;20.48;;;;;;;;;;4970936;28;20045;-68
2021/12/04 07:53:39;;;;;;;110.05;26.65;;;5.20;99.90;;;;;;4994586;28;20526;-69
2021/12/04 07:56:07;;;;;;;58.80;17.02;;;;;;;;;;4994067;28;20446;-69
2021/12/04 07:58:33;;;;;;;67.72;18.60;;;;;;;;;;4991657;28;20042;-67
2021/12/04 08:00:59;;;;;;;69.38;18.77;;;;;;;;;;4982782;28;20522;-69
2021/12/04 08:03:25;;;;;;;121.53;26.60;;;;;;;;;;4999739;28;20038;-69
2021/12/04 08:05:51;;;;;;;53.88;19.42;;;;;;;;;;4991983;28;20038;-69
2021/12/04 08:08:17;;;;;;;75.78;20.98;;;;;;;;;;4991211;28;20168;-69
2021/12/04 08:10:43;;;;;;;66.55;18.52;;;;;;;;;;4991256;28;20399;-69
2021/12/04 08:13:09;;;;;;;46.55;18.13;;;;;;;;;;4999686;28;20510;-69
2021/12/04 08:15:37;;;;;;;72.82;18.98;;;;;;;;;;4990825;28;20049;-69
2021/12/04 08:18:03;;;;;;;77.93;20.48;;;;;;;;;;4991271;28;20133;-69
2021/12/04 08:20:29;;;;;;;69.45;19.77;;;;;;;;;;4991385;28;20052;-69
2021/12/04 08:22:56;;;;;;;42.72;16.52;;;;;;;;;;4991554;28;20045;-69
2021/12/04 08:25:22;;;;;;;57.13;18.50;;;5.30;99.90;;;;;;4991479;28;20046;-69
2021/12/04 08:27:49;;;;;;;44.20;17.50;;;;;;;;;;4991516;28;20048;-70
2021/12/04 08:30:19;;;;;;;73.65;20.42;;;5.10;99.90;;;;;;4975672;28;20045;-69
2021/12/04 08:32:45;;;;;;;48.75;16.77;;;;;;;;;;4991520;28;20046;-68
2021/12/04 08:35:13;;;;;;;60.00;18.50;;;;;;;;;;4975381;28;20049;-69
2021/12/04 08:37:39;;;;;;;54.35;17.13;;;;;;;;;;4974968;28;20061;-69
2021/12/04 08:40:10;;;;;;;62.42;19.13;;;;;;;;;;4991350;28;20042;-68
2021/12/04 08:42:36;;;;;;;50.13;18.15;;;;;;;;;;4991267;28;20203;-68
2021/12/04 08:45:02;;;;;;;61.47;17.25;;;;;;;;;;4991318;28;20136;-69
2021/12/04 08:47:28;;;;;;;54.22;17.80;;;5.20;99.90;;;;;;4991024;28;20041;-69
2021/12/04 08:49:54;;;;;;;52.35;17.33;;;;;;;;;;5007768;28;20499;-70
2021/12/04 08:52:20;;;;;;;78.65;19.75;;;;;;;;;;4975008;28;20049;-69
2021/12/04 08:54:46;;;;;;;47.72;18.13;;;5.30;99.90;;;;;;4991203;28;20431;-67
2021/12/04 08:57:12;;;;;;;48.13;17.55;;;;;;;;;;5006937;28;20056;-69
2021/12/04 08:59:38;;;;;;;58.35;19.15;;;;;;;;;;4990936;28;20042;-69
2021/12/04 09:02:04;;;;;;;60.13;18.17;;;;;;;;;;4974405;28;20044;-69
2021/12/04 09:04:32;;;;;;;67.28;20.08;;;;;;;;;;4994099;28;20065;-69
2021/12/04 09:06:58;;;;;;;50.20;17.95;;;;;;;;;;4991800;28;20069;-70
2021/12/04 09:09:25;;;;;;;71.30;19.77;;;5.40;99.90;;;;;;4991666;28;20048;-70
2021/12/04 09:11:56;;;;;;;65.07;20.10;;;5.30;99.90;;;;;;4990241;28;20046;-71
2021/12/04 09:14:26;;;;;;;49.40;17.65;;;5.50;99.90;;;;;;4991621;28;20056;-70
2021/12/04 09:16:53;;;;;;;82.88;21.45;;;;;;;;;;4985893;28;20045;-69
2021/12/04 09:19:20;;;;;;;55.33;17.48;;;5.30;99.90;;;;;;4992665;28;20034;-69
2021/12/04 09:21:46;;;;;;;54.85;18.00;;;5.30;99.90;;;;;;4977241;28;20038;-66
2021/12/04 09:24:14;;;;;;;72.45;17.70;;;5.30;99.90;;;;;;4993367;28;20038;-65
2021/12/04 09:26:52;;;;;;;64.63;19.15;;;5.30;99.90;;;;;;5013028;28;20034;-69
2021/12/04 09:29:41;;;;;;;45.70;17.05;;;;;;;;;;5001279;28;20041;-69
2021/12/04 09:40:24;;;;;;;44.72;16.38;;;;;;;;;;5017127;28;20128;-70
2021/12/04 09:40:29;;;;;;;48.80;17.15;;;;;;;;;;5016852;28;20499;-71
2021/12/04 10:00:10;;;;;;;40.72;14.80;;;;;;;;;;5017009;28;20049;-70
2021/12/04 10:02:46;;;;;;;30.70;13.80;;;;;;;;;;5017314;28;20131;-70
2021/12/04 10:16:44;;;;;;;34.30;14.30;;;5.50;99.90;;;;;;5016731;28;20453;-69
2021/12/04 10:19:31;;;;;;;29.67;13.55;;;5.40;99.90;;;;;;5016682;28;20114;-69
2021/12/04 10:22:11;;;;;;;46.35;16.40;;;5.40;99.90;;;;;;5016730;28;20479;-69
2021/12/04 10:32:05;;;;;;;36.13;15.57;;;;;;;;;;5016595;28;20041;-70
2021/12/04 10:33:10;;;;;;;39.05;15.70;;;5.40;99.90;;;;;;5016194;28;20049;-69
2021/12/04 10:35:37;;;;;;;33.72;14.48;;;5.50;99.90;;;;;;5016133;28;20041;-69
2021/12/04 10:38:05;;;;;;;48.45;17.38;;;5.50;99.90;;;;;;5016333;28;20048;-70
2021/12/04 10:40:36;;;;;;;51.17;16.85;;;;;;;;;;4999156;28;20038;-70
2021/12/04 10:43:05;;;;;;;40.13;15.52;;;;;;;;;;5000020;28;20128;-69
2021/12/04 10:45:40;;;;;;;37.63;14.77;;;5.50;99.90;;;;;;5016179;28;20091;-69
2021/12/04 10:48:11;;;;;;;44.47;15.52;;;5.40;99.90;;;;;;5034026;28;20045;-69
2021/12/04 10:50:47;;;;;;;36.20;14.13;;;5.50;99.90;;;;;;5032281;28;20129;-69
2021/12/04 10:53:23;;;;;;;38.42;14.40;;;5.40;99.90;;;;;;5015999;28;20491;-70
2021/12/04 11:03:53;;;;;;;40.83;15.68;;;5.40;99.90;;;;;;5015949;28;20128;-69
2021/12/04 11:42:36;;;;;;;28.23;13.80;;;5.60;99.90;;;;;;4973467;28;20460;-69
2021/12/04 11:45:29;;;;;;;29.42;14.90;;;5.60;99.90;;;;;;4989623;28;20469;-69
2021/12/04 11:47:58;;;;;;;30.33;13.20;;;5.70;99.90;;;;;;4957104;28;20522;-69
2021/12/04 11:50:37;;;;;;;33.13;15.27;;;5.60;99.90;;;;;;4972403;28;20039;-69
2021/12/04 11:53:06;;;;;;;28.48;13.40;;;5.60;99.90;;;;;;4972874;28;20137;-69
2021/12/04 11:55:38;;;;;;;30.45;14.07;;;5.60;99.90;;;;;;4989097;28;20046;-69
2021/12/04 11:58:15;;;;;;;30.13;13.57;;;5.60;99.90;;;;;;4973053;28;20527;-69
2021/12/04 12:00:41;;;;;;;31.73;14.25;;;;;;;;;;4972870;28;20098;-69
2021/12/04 12:03:19;;;;;;;29.30;13.27;;;5.50;99.90;;;;;;4988983;28;20501;-69
2021/12/04 12:05:51;;;;;;;29.55;14.88;;;5.70;99.90;;;;;;4988655;28;20121;-69
2021/12/04 12:08:28;;;;;;;26.55;13.45;;;5.80;99.90;;;;;;4988959;28;20040;-69
2021/12/04 12:10:58;;;;;;;26.55;13.30;;;5.80;99.90;;;;;;4988942;28;20043;-69
2021/12/04 12:13:27;;;;;;;30.05;13.35;;;5.80;99.90;;;;;;4989094;28;20146;-70
2021/12/04 12:16:09;;;;;;;29.13;12.80;;;5.70;99.90;;;;;;4988442;28;20054;-69
2021/12/04 12:19:01;;;;;;;34.38;13.68;;;5.80;99.90;;;;;;4972347;28;20043;-69
2021/12/04 12:21:32;;;;;;;32.47;13.40;;;;;;;;;;4988721;28;20042;-70
2021/12/04 12:27:20;;;;;;;35.88;15.82;;;5.60;99.90;;;;;;4972243;28;20043;-69
2021/12/04 12:38:35;;;;;;;44.45;16.83;;;5.80;99.90;;;;;;4972170;28;20104;-70
2021/12/04 12:41:07;;;;;;;42.25;15.85;;;5.90;99.90;;;;;;4988272;28;20047;-69
2021/12/04 12:44:04;;;;;;;40.33;17.33;;;5.80;99.90;;;;;;4972191;28;20436;-69
2021/12/04 12:46:38;;;;;;;42.60;17.38;;;5.80;99.90;;;;;;4971274;28;20047;-69
2021/12/04 12:49:15;;;;;;;39.40;16.83;;;5.90;99.90;;;;;;4971443;28;20051;-69
2021/12/04 12:51:45;;;;;;;36.97;16.15;;;5.70;99.90;;;;;;4988533;28;20051;-70
2021/12/04 12:54:23;;;;;;;43.38;18.48;;;5.70;99.90;;;;;;4972377;28;20471;-70
2021/12/04 12:56:58;;;;;;;38.55;16.63;;;5.90;99.90;;;;;;4971932;28;20046;-69
2021/12/04 12:59:33;;;;;;;35.67;17.02;;;5.80;99.90;;;;;;4972006;28;20046;-69
2021/12/04 13:11:40;;;;;;;36.92;16.50;;;;;;;;;;4971803;28;20054;-69
2021/12/04 13:13:27;;;;;;;31.70;15.07;;;5.70;99.90;;;;;;4971646;28;20058;-69
2021/12/04 13:15:55;;;;;;;33.35;16.00;;;5.90;99.90;;;;;;4971396;28;20078;-69
2021/12/04 13:18:22;;;;;;;28.13;14.27;;;;;;;;;;4971439;28;20516;-70
2021/12/04 13:20:50;;;;;;;34.38;16.80;;;5.80;99.90;;;;;;4973004;28;20054;-70
2021/12/04 13:23:22;;;;;;;33.85;15.50;;;5.90;99.90;;;;;;4971644;28;20086;-70
2021/12/04 13:25:57;;;;;;;29.42;14.32;;;5.90;99.90;;;;;;4971570;28;20038;-69
2021/12/04 13:28:26;;;;;;;38.83;16.30;;;5.80;99.90;;;;;;4971502;28;20035;-70
2021/12/04 13:30:52;;;;;;;34.13;15.13;;;;;;;;;;4971521;28;20094;-69
2021/12/04 13:33:18;;;;;;;29.55;13.43;;;;;;;;;;4971567;28;20043;-69
2021/12/04 13:35:47;;;;;;;29.88;14.60;;;;;;;;;;4987447;28;20074;-69
2021/12/04 13:38:15;;;;;;;27.77;14.13;;;6.00;99.90;;;;;;4972916;28;20097;-70
2021/12/04 13:40:43;;;;;;;34.20;14.25;;;5.80;99.90;;;;;;4971477;28;20689;-70
2021/12/04 13:43:15;;;;;;;32.28;14.95;;;5.90;99.90;;;;;;4971352;28;20149;-69
2021/12/04 13:45:41;;;;;;;35.80;15.43;;;;;;;;;;4971049;28;20412;-69
2021/12/04 13:48:08;;;;;;;33.00;15.68;;;5.80;99.90;;;;;;4972613;28;20047;-70
2021/12/04 13:53:38;;;;;;;28.15;13.68;;;5.80;99.90;;;;;;4971321;28;20444;-70
2021/12/04 13:56:08;;;;;;;31.95;14.65;;;5.90;99.90;;;;;;4931627;29;20537;-69
2021/12/04 13:58:34;;;;;;;34.00;15.60;;;;;;;;;;4961229;28;20066;-69
2021/12/04 14:01:03;;;;;;;33.13;14.48;;;5.80;99.90;;;;;;4990516;28;20041;-71
2021/12/04 14:03:31;;;;;;;31.77;14.25;;;5.90;99.90;;;;;;4973948;28;20584;-71
2021/12/04 14:05:58;;;;;;;37.05;15.50;;;5.80;99.90;;;;;;4970188;28;20035;-70
2021/12/04 14:08:23;;;;;;;30.30;13.52;;;5.70;99.90;;;;;;4973609;28;20085;-71
2021/12/04 14:10:49;;;;;;;38.47;15.48;;;5.80;99.90;;;;;;4990056;28;20038;-71
2021/12/04 14:13:24;;;;;;;32.42;14.95;;;5.70;99.90;;;;;;4989835;28;20092;-71
2021/12/04 14:15:54;;;;;;;38.67;15.48;;;;;;;;;;4993519;28;20064;-71
2021/12/04 14:18:22;;;;;;;36.85;14.50;;;5.90;99.90;;;;;;4994261;28;20057;-71
2021/12/04 14:21:00;;;;;;;37.17;16.20;;;;;;;;;;4988063;28;20054;-71
2021/12/04 14:23:28;;;;;;;38.60;16.35;;;5.60;99.90;;;;;;4977327;28;20042;-70
2021/12/04 14:25:54;;;;;;;39.28;16.30;;;5.80;99.90;;;;;;4992622;28;20121;-70
2021/12/04 14:28:22;;;;;;;37.10;15.15;;;5.80;99.90;;;;;;4993242;28;20050;-71
2021/12/04 14:30:48;;;;;;;42.22;15.52;;;5.70;99.90;;;;;;4977194;28;20050;-71
2021/12/04 14:33:18;;;;;;;33.38;14.40;;;5.80;99.90;;;;;;4992843;28;20050;-70
2021/12/04 14:35:46;;;;;;;35.80;16.00;;;5.70;99.90;;;;;;4992867;28;20050;-71
2021/12/04 14:38:19;;;;;;;32.45;15.32;;;5.70;99.90;;;;;;4993083;28;20046;-71
2021/12/04 14:40:48;;;;;;;35.03;14.57;;;5.70;99.90;;;;;;4993806;28;20035;-71
2021/12/04 14:43:21;;;;;;;38.67;15.55;;;5.80;99.90;;;;;;4993828;28;20373;-71
2021/12/04 14:45:51;;;;;;;46.00;18.33;;;5.70;99.90;;;;;;4993495;28;20543;-71
2021/12/04 14:48:27;;;;;;;40.08;15.93;;;5.70;99.90;;;;;;4993586;28;20130;-71
2021/12/04 14:51:04;;;;;;;41.92;18.02;;;5.60;99.90;;;;;;4994995;28;20113;-71
2021/12/04 14:53:32;;;;;;;38.72;17.05;;;5.70;99.90;;;;;;4993887;28;20404;-71
2021/12/04 14:55:59;;;;;;;33.63;15.35;;;5.80;99.90;;;;;;4993404;28;20133;-71
2021/12/04 14:58:26;;;;;;;42.70;15.68;;;5.70;99.90;;;;;;4993357;28;20089;-71
2021/12/04 15:01:02;;;;;;;41.83;16.55;;;5.70;99.90;;;;;;4993496;28;20512;-71
2021/12/04 15:03:37;;;;;;;34.22;14.95;;;5.60;99.90;;;;;;4993378;28;20496;-71
2021/12/04 15:06:05;;;;;;;33.35;14.85;;;5.70;99.90;;;;;;4993143;28;20046;-70
2021/12/04 15:08:39;;;;;;;37.35;14.88;;;5.70;99.90;;;;;;4993256;28;20045;-71
2021/12/04 15:11:09;;;;;;;38.95;15.93;;;5.70;99.90;;;;;;4993311;28;20042;-71
2021/12/04 15:13:40;;;;;;;37.58;14.82;;;5.80;99.90;;;;;;4993226;28;20093;-70
2021/12/04 15:16:08;;;;;;;40.83;15.00;;;5.80;99.90;;;;;;4993073;28;20042;-70
2021/12/04 15:18:37;;;;;;;33.25;13.95;;;5.70;99.90;;;;;;4992959;28;20057;-71
2021/12/04 15:21:14;;;;;;;30.83;13.70;;;5.60;99.90;;;;;;4993298;28;20169;-70
2021/12/04 15:23:40;;;;;;;39.05;15.52;;;;;;;;;;4993182;28;20081;-72
2021/12/04 15:26:11;;;;;;;31.67;14.13;;;5.90;99.90;;;;;;4992366;28;20031;-70
2021/12/04 15:28:42;;;;;;;32.35;14.32;;;5.80;99.90;;;;;;4992920;28;20034;-71
2021/12/04 15:31:08;;;;;;;36.13;15.02;;;5.60;99.90;;;;;;4994248;28;20046;-71
2021/12/04 15:33:44;;;;;;;31.02;14.13;;;5.70;99.90;;;;;;4992384;28;20138;-70
2021/12/04 15:36:20;;;;;;;30.13;13.32;;;5.60;99.90;;;;;;4992530;28;20042;-70
2021/12/04 15:38:52;;;;;;;33.47;13.43;;;5.80;99.90;;;;;;4992643;28;20042;-71
2021/12/04 15:41:33;;;;;;;33.78;14.13;;;5.70;99.90;;;;;;4992846;28;20065;-70
2021/12/04 15:54:38;;;;;;;31.08;13.65;;;5.60;99.90;;;;;;4992438;28;20077;-71
2021/12/04 15:57:14;;;;;;;26.35;13.20;;;5.60;99.90;;;;;;4992031;28;20092;-71
2021/12/04 15:59:46;;;;;;;27.08;14.05;;;5.70;99.90;;;;;;4992284;28;20137;-71
2021/12/04 16:02:15;;;;;;;30.52;14.75;;;;;;;;;;4992232;28;20100;-71
2021/12/04 16:04:42;;;;;;;28.05;14.00;;;5.70;99.90;;;;;;4992343;28;20044;-71
2021/12/04 16:07:07;;;;;;;32.40;15.90;;;5.60;99.90;;;;;;4991893;28;20101;-71
2021/12/04 16:09:40;;;;;;;32.97;15.55;;;5.80;99.90;;;;;;4992358;28;20546;-71
2021/12/04 16:12:08;;;;;;;28.33;13.80;;;5.70;99.90;;;;;;4992157;28;20129;-71
2021/12/04 16:14:37;;;;;;;28.98;15.13;;;5.70;99.90;;;;;;4992087;28;20499;-71
2021/12/04 16:17:04;;;;;;;30.35;14.15;;;5.80;99.90;;;;;;4993255;28;20046;-71
2021/12/04 16:19:32;;;;;;;27.55;13.20;;;5.70;99.90;;;;;;5008609;28;20035;-70
2021/12/04 16:22:02;;;;;;;28.83;13.90;;;5.90;99.90;;;;;;4993305;28;20048;-71